Time;durP1;ratioP1;P1;durP2;ratioP2;P2;SDS_P1;SDS_P2;PMS_P1;PMS_P2;Temp;Humidity;BMP_temperature;BMP_pressure;BME280_temperature;BME280_humidity;BME280_pressure;Samples;Min_cycle;Max_cycle;Signal;HPM_P1;HPM_P2
2022/04/07 00:00:21;;;;;;;14.93;2.73;;;10.10;99.90;;;;;;5067834;28;39558;-76
2022/04/07 00:02:47;;;;;;;20.07;3.37;;;10.10;99.90;;;;;;5063303;28;39611;-77
2022/04/07 00:05:14;;;;;;;20.80;3.67;;;10.10;99.90;;;;;;5057616;28;37184;-76
2022/04/07 00:07:40;;;;;;;16.60;3.20;;;10.10;99.90;;;;;;5074717;28;37899;-77
2022/04/07 00:10:06;;;;;;;20.03;2.90;;;10.10;99.90;;;;;;5058905;28;38586;-76
2022/04/07 00:12:33;;;;;;;20.23;3.77;;;10.10;99.90;;;;;;5059014;28;39313;-76
2022/04/07 00:15:01;;;;;;;17.80;2.80;;;10.10;99.90;;;;;;5072133;28;38141;-77
2022/04/07 00:17:27;;;;;;;9.87;2.27;;;10.20;99.90;;;;;;5052024;28;47186;-76
2022/04/07 00:19:54;;;;;;;17.33;3.47;;;10.10;99.90;;;;;;5059183;28;38612;-75
2022/04/07 00:22:21;;;;;;;24.70;3.77;;;10.10;99.90;;;;;;5058893;28;39542;-75
2022/04/07 00:24:47;;;;;;;22.17;3.70;;;10.20;99.90;;;;;;5061290;28;39195;-75
2022/04/07 00:27:13;;;;;;;18.77;3.30;;;10.20;99.90;;;;;;5050202;28;37893;-77
2022/04/07 00:29:39;;;;;;;17.57;3.33;;;10.20;99.90;;;;;;5070098;28;39668;-75
2022/04/07 00:32:06;;;;;;;25.27;4.20;;;10.20;99.90;;;;;;5061358;27;39735;-75
2022/04/07 00:34:33;;;;;;;25.03;4.00;;;10.10;99.90;;;;;;5057299;28;37058;-75
2022/04/07 00:36:59;;;;;;;20.77;4.30;;;10.00;99.90;;;;;;5073887;28;37489;-76
2022/04/07 00:39:25;;;;;;;23.73;3.93;;;10.00;99.90;;;;;;5075632;28;40691;-76
2022/04/07 00:41:51;;;;;;;21.50;4.70;;;9.90;99.90;;;;;;5055606;28;38864;-76
2022/04/07 00:44:18;;;;;;;20.60;4.20;;;9.90;99.90;;;;;;5058555;28;37512;-76
2022/04/07 00:46:44;;;;;;;27.30;4.40;;;9.80;99.90;;;;;;5057823;28;36945;-76
2022/04/07 00:49:10;;;;;;;19.57;3.90;;;9.80;99.90;;;;;;5066040;28;40942;-76
2022/04/07 00:51:39;;;;;;;15.43;3.27;;;9.80;99.90;;;;;;5068432;28;37281;-76
2022/04/07 00:54:07;;;;;;;20.57;3.13;;;9.80;99.90;;;;;;5064694;27;39116;-76
2022/04/07 00:56:35;;;;;;;25.20;4.23;;;9.80;99.90;;;;;;5051757;28;37323;-75
2022/04/07 00:59:05;;;;;;;17.23;2.97;;;9.70;99.90;;;;;;5064061;28;39466;-76
2022/04/07 01:01:31;;;;;;;16.93;4.27;;;9.70;99.90;;;;;;5063741;28;45246;-77
2022/04/07 01:03:58;;;;;;;24.43;5.07;;;9.70;99.90;;;;;;5080845;28;38325;-76
2022/04/07 01:06:25;;;;;;;20.33;3.73;;;9.60;99.90;;;;;;5071074;28;37062;-76
2022/04/07 01:08:51;;;;;;;21.80;4.33;;;9.60;99.90;;;;;;5071951;28;38794;-76
2022/04/07 01:11:17;;;;;;;22.40;3.90;;;9.60;99.90;;;;;;5072225;28;38638;-76
2022/04/07 01:13:49;;;;;;;21.33;4.17;;;9.60;99.90;;;;;;5073860;27;38890;-76
2022/04/07 01:16:17;;;;;;;28.23;5.97;;;9.60;99.90;;;;;;5066811;28;37444;-75
2022/04/07 01:18:46;;;;;;;32.27;5.83;;;9.60;99.90;;;;;;5067611;28;39815;-76
2022/04/07 01:21:14;;;;;;;34.03;6.33;;;9.60;99.90;;;;;;5067532;28;39055;-76
2022/04/07 01:23:49;;;;;;;26.77;4.93;;;9.60;99.90;;;;;;5069555;28;38156;-77
2022/04/07 01:26:16;;;;;;;28.57;4.10;;;9.70;99.90;;;;;;5058263;28;36256;-77
2022/04/07 01:28:49;;;;;;;28.13;4.77;;;9.70;99.90;;;;;;5054869;28;38575;-76
2022/04/07 01:31:15;;;;;;;30.57;4.60;;;9.80;99.90;;;;;;5062780;28;38071;-76
2022/04/07 01:33:42;;;;;;;29.83;4.07;;;9.80;99.90;;;;;;5067642;28;36318;-76
2022/04/07 01:36:09;;;;;;;32.57;4.83;;;9.90;99.90;;;;;;5072167;28;36988;-77
2022/04/07 01:38:36;;;;;;;27.43;3.83;;;9.90;99.90;;;;;;5051508;28;40731;-77
2022/04/07 01:41:02;;;;;;;30.47;4.07;;;9.90;99.90;;;;;;5081167;28;38209;-76
2022/04/07 01:43:29;;;;;;;22.83;3.90;;;10.00;99.90;;;;;;5070419;28;38940;-78
2022/04/07 01:45:56;;;;;;;26.63;4.87;;;10.00;99.90;;;;;;5078453;28;37643;-77
2022/04/07 01:48:23;;;;;;;18.40;3.53;;;10.00;99.90;;;;;;5065619;27;38956;-76
2022/04/07 01:50:51;;;;;;;22.10;3.70;;;10.00;99.90;;;;;;5080807;28;38965;-76
2022/04/07 01:53:18;;;;;;;27.20;4.10;;;10.00;99.90;;;;;;5086021;28;36113;-76
2022/04/07 01:55:45;;;;;;;19.83;3.77;;;10.10;99.90;;;;;;5074838;28;35905;-77
2022/04/07 01:58:11;;;;;;;20.80;3.30;;;10.10;99.90;;;;;;5075811;28;39856;-76
2022/04/07 02:00:39;;;;;;;22.47;3.47;;;10.10;99.90;;;;;;5065161;28;38176;-77
2022/04/07 02:03:08;;;;;;;22.47;4.37;;;10.10;99.90;;;;;;5078536;28;36926;-76
2022/04/07 02:05:35;;;;;;;22.97;4.37;;;10.10;99.90;;;;;;5060151;28;37615;-76
2022/04/07 02:08:02;;;;;;;23.10;3.90;;;10.10;99.90;;;;;;5056654;28;39322;-75
2022/04/07 02:10:30;;;;;;;20.70;4.43;;;10.10;99.90;;;;;;5078587;28;38423;-76
2022/04/07 02:12:56;;;;;;;28.50;4.70;;;10.10;99.90;;;;;;5064611;28;38462;-75
2022/04/07 02:15:26;;;;;;;29.73;5.23;;;10.10;99.90;;;;;;5076280;28;36490;-77
2022/04/07 02:17:52;;;;;;;24.70;4.03;;;10.10;99.90;;;;;;5049192;28;39100;-78
2022/04/07 02:20:18;;;;;;;20.20;3.87;;;10.10;99.90;;;;;;5077611;28;39160;-76
2022/04/07 02:22:44;;;;;;;18.23;3.53;;;10.10;99.90;;;;;;5047749;28;39092;-76
2022/04/07 02:25:11;;;;;;;26.87;4.10;;;10.10;99.90;;;;;;5050645;28;37799;-77
2022/04/07 02:27:39;;;;;;;23.00;4.63;;;10.10;99.90;;;;;;5060684;28;39903;-76
2022/04/07 02:30:13;;;;;;;24.77;4.27;;;10.10;99.90;;;;;;5076290;28;38557;-77
2022/04/07 02:32:40;;;;;;;29.43;4.80;;;10.10;99.90;;;;;;5074024;28;38599;-76
2022/04/07 02:35:07;;;;;;;29.27;5.03;;;10.10;99.90;;;;;;5059946;28;38351;-76
2022/04/07 02:37:33;;;;;;;35.93;4.70;;;10.10;99.90;;;;;;5060801;28;38565;-76
2022/04/07 02:40:00;;;;;;;34.30;5.40;;;10.20;99.90;;;;;;5076467;28;40016;-76
2022/04/07 02:42:26;;;;;;;28.33;5.23;;;10.20;99.90;;;;;;5059785;28;37752;-79
2022/04/07 02:44:52;;;;;;;23.97;4.50;;;10.20;99.90;;;;;;5056110;28;36753;-77
2022/04/07 02:47:18;;;;;;;31.83;5.03;;;10.20;99.90;;;;;;5042667;28;39334;-76
2022/04/07 02:49:45;;;;;;;33.23;4.70;;;10.10;99.90;;;;;;5077886;28;39209;-76
2022/04/07 02:52:11;;;;;;;23.57;4.33;;;10.10;99.90;;;;;;5077203;28;36504;-76
2022/04/07 02:54:38;;;;;;;31.30;5.00;;;10.20;99.90;;;;;;5078015;28;38040;-79
2022/04/07 02:57:04;;;;;;;37.43;6.20;;;10.20;99.90;;;;;;5063470;27;38413;-75
2022/04/07 02:59:32;;;;;;;30.83;5.57;;;10.20;99.90;;;;;;5078308;28;38455;-75
2022/04/07 03:01:58;;;;;;;30.37;5.30;;;10.10;99.90;;;;;;5043053;28;39634;-76
2022/04/07 03:04:24;;;;;;;23.43;4.53;;;10.10;99.90;;;;;;5048054;28;36946;-76
2022/04/07 03:06:51;;;;;;;32.23;5.00;;;10.10;99.90;;;;;;5066788;28;38877;-78
2022/04/07 03:09:21;;;;;;;27.83;4.67;;;10.00;99.90;;;;;;5067547;28;39051;-76
2022/04/07 03:11:47;;;;;;;37.13;4.77;;;9.90;99.90;;;;;;5076474;28;38681;-76
2022/04/07 03:14:14;;;;;;;29.40;4.97;;;9.80;99.90;;;;;;5057914;28;36766;-76
2022/04/07 03:16:40;;;;;;;43.07;5.57;;;9.70;99.90;;;;;;5058567;28;38620;-76
2022/04/07 03:19:07;;;;;;;38.80;6.10;;;9.70;99.90;;;;;;5059829;28;38574;-76
2022/04/07 03:21:33;;;;;;;34.73;5.30;;;9.60;99.90;;;;;;5063038;28;37428;-78
2022/04/07 03:23:59;;;;;;;32.43;4.63;;;9.60;99.90;;;;;;5057118;28;37328;-78
2022/04/07 03:26:25;;;;;;;40.87;7.00;;;9.60;99.90;;;;;;5060796;28;38755;-77
2022/04/07 03:28:51;;;;;;;35.10;6.23;;;9.60;99.90;;;;;;5059866;28;38086;-77
2022/04/07 03:31:17;;;;;;;28.60;5.27;;;9.50;99.90;;;;;;5059087;28;37620;-77
2022/04/07 03:33:44;;;;;;;25.87;4.70;;;9.60;99.90;;;;;;5068570;28;38194;-76
2022/04/07 03:36:10;;;;;;;38.33;5.00;;;9.60;99.90;;;;;;5058989;28;40477;-77
2022/04/07 03:38:37;;;;;;;31.63;4.97;;;9.70;99.90;;;;;;5070277;28;39801;-77
2022/04/07 03:41:05;;;;;;;31.13;4.20;;;9.70;99.90;;;;;;5064802;28;37704;-77
2022/04/07 03:43:33;;;;;;;20.87;3.53;;;9.70;99.90;;;;;;5077081;28;38963;-77
2022/04/07 03:45:59;;;;;;;24.33;3.60;;;9.70;99.90;;;;;;5088134;28;38716;-78
2022/04/07 03:48:26;;;;;;;27.43;4.50;;;9.70;99.90;;;;;;5063467;28;39357;-77
2022/04/07 03:50:52;;;;;;;21.57;3.77;;;9.70;99.90;;;;;;5072053;28;37880;-77
2022/04/07 03:53:18;;;;;;;32.87;3.97;;;9.70;99.90;;;;;;5073197;27;37515;-80
2022/04/07 03:55:44;;;;;;;21.50;3.73;;;9.70;99.90;;;;;;5073210;28;38916;-77
2022/04/07 03:58:10;;;;;;;32.67;4.67;;;9.80;99.90;;;;;;5072515;28;39877;-77
2022/04/07 04:00:36;;;;;;;21.30;3.30;;;9.80;99.90;;;;;;5086505;28;40182;-77
2022/04/07 04:03:03;;;;;;;17.50;3.67;;;9.90;99.90;;;;;;5062313;28;37764;-77
2022/04/07 04:05:29;;;;;;;16.93;4.23;;;10.00;99.90;;;;;;5073375;28;39797;-78
2022/04/07 04:07:56;;;;;;;21.27;4.27;;;10.00;99.90;;;;;;5049269;28;38136;-79
2022/04/07 04:10:23;;;;;;;15.67;2.70;;;10.00;99.90;;;;;;5059718;28;38171;-77
2022/04/07 04:12:49;;;;;;;19.00;3.13;;;9.90;99.90;;;;;;5048825;28;36238;-77
2022/04/07 04:15:15;;;;;;;15.83;3.50;;;9.90;99.90;;;;;;5049242;28;39547;-77
2022/04/07 04:17:41;;;;;;;22.60;3.57;;;9.90;99.90;;;;;;5061589;28;38238;-79
2022/04/07 04:20:08;;;;;;;18.57;2.50;;;9.90;99.90;;;;;;5071332;28;38426;-78
2022/04/07 04:22:34;;;;;;;17.03;2.83;;;9.90;99.90;;;;;;5069607;28;35994;-78
2022/04/07 04:25:00;;;;;;;20.30;2.80;;;9.90;99.90;;;;;;5049385;28;39785;-78
2022/04/07 04:27:26;;;;;;;20.37;3.23;;;9.80;99.90;;;;;;5077230;28;38859;-81
2022/04/07 04:29:52;;;;;;;13.37;2.53;;;9.80;99.90;;;;;;5058536;28;37950;-76
2022/04/07 04:32:18;;;;;;;21.10;2.73;;;9.70;99.90;;;;;;5045486;28;37087;-77
2022/04/07 04:34:46;;;;;;;21.73;3.20;;;9.70;99.90;;;;;;5066831;28;20540;-78
2022/04/07 04:37:12;;;;;;;15.13;2.73;;;9.70;99.90;;;;;;5057479;28;38472;-78
2022/04/07 04:39:38;;;;;;;16.23;2.83;;;9.70;99.90;;;;;;5069374;28;37425;-77
2022/04/07 04:42:05;;;;;;;17.60;3.13;;;9.60;99.90;;;;;;5074648;28;37878;-79
2022/04/07 04:44:32;;;;;;;15.87;3.00;;;9.50;99.90;;;;;;5072226;28;40518;-78
2022/04/07 04:46:58;;;;;;;23.40;3.17;;;9.50;99.90;;;;;;5070170;28;39172;-77
2022/04/07 04:49:24;;;;;;;16.50;2.80;;;9.40;99.90;;;;;;5066230;28;37991;-78
2022/04/07 04:51:50;;;;;;;17.40;3.03;;;9.40;99.90;;;;;;5069332;28;37378;-77
2022/04/07 04:54:17;;;;;;;16.00;2.93;;;9.40;99.90;;;;;;5077152;27;39719;-77
2022/04/07 04:56:43;;;;;;;11.97;1.90;;;9.40;99.90;;;;;;5068135;28;38561;-77
2022/04/07 04:59:09;;;;;;;11.73;2.23;;;9.40;99.90;;;;;;5077957;28;38787;-80
2022/04/07 05:01:35;;;;;;;13.63;1.97;;;9.30;99.90;;;;;;5068699;28;37876;-81
2022/04/07 05:04:01;;;;;;;19.23;2.73;;;9.40;99.90;;;;;;5063683;28;40495;-80
2022/04/07 05:06:27;;;;;;;12.50;2.87;;;9.30;99.90;;;;;;5052060;28;37259;-80
2022/04/07 05:08:53;;;;;;;13.70;2.00;;;9.30;99.90;;;;;;5052930;28;38882;-79
2022/04/07 05:11:19;;;;;;;12.10;2.73;;;9.30;99.90;;;;;;5068074;28;37054;-80
2022/04/07 05:13:47;;;;;;;10.20;2.00;;;9.30;99.90;;;;;;5073731;27;39767;-80
2022/04/07 05:16:15;;;;;;;12.67;2.00;;;9.30;99.90;;;;;;5068787;28;38978;-80
2022/04/07 05:18:46;;;;;;;10.80;1.97;;;9.30;99.90;;;;;;5081044;28;36252;-81
2022/04/07 05:21:16;;;;;;;10.13;2.07;;;9.30;99.90;;;;;;5049034;28;37496;-81
2022/04/07 05:23:43;;;;;;;13.53;2.53;;;9.20;99.90;;;;;;5068961;28;40272;-81
2022/04/07 05:26:09;;;;;;;8.90;1.80;;;9.20;99.90;;;;;;5069098;28;39281;-82
2022/04/07 05:28:35;;;;;;;12.27;2.00;;;9.20;99.90;;;;;;5078635;28;38486;-82
2022/04/07 05:31:06;;;;;;;5.93;2.27;;;9.20;99.90;;;;;;5058242;28;37950;-80
2022/04/07 05:33:33;;;;;;;7.60;1.85;;;9.10;99.90;;;;;;5063457;28;47527;-80
2022/04/07 05:36:01;;;;;;;10.60;2.70;;;9.10;99.90;;;;;;5066872;28;38273;-81
2022/04/07 05:38:27;;;;;;;10.33;2.23;;;9.20;99.90;;;;;;5075397;28;47968;-82
2022/04/07 05:40:53;;;;;;;19.57;3.07;;;9.10;99.90;;;;;;5074392;28;37083;-81
2022/04/07 05:43:20;;;;;;;7.03;0.80;;;9.10;99.90;;;;;;5072433;28;37742;-81
2022/04/07 05:45:46;;;;;;;3.03;0.63;;;7.90;99.90;;;;;;5071086;28;38449;-81
2022/04/07 05:48:13;;;;;;;4.57;0.70;;;6.80;99.90;;;;;;5061107;28;37704;-81
2022/04/07 05:50:39;;;;;;;8.00;1.00;;;6.40;99.90;;;;;;5069924;28;37988;-81
2022/04/07 05:53:06;;;;;;;11.47;1.60;;;6.20;99.90;;;;;;5061576;28;37892;-81
2022/04/07 05:55:33;;;;;;;12.47;1.97;;;6.20;99.90;;;;;;5063604;28;38142;-81
2022/04/07 05:58:07;;;;;;;16.83;2.23;;;6.20;99.90;;;;;;5067188;28;40160;-81
2022/04/07 06:00:36;;;;;;;15.37;2.10;;;6.20;99.90;;;;;;5083099;28;47311;-80
2022/04/07 06:03:02;;;;;;;21.87;2.77;;;6.20;99.90;;;;;;5075806;28;38419;-80
2022/04/07 06:05:28;;;;;;;22.83;3.20;;;6.30;99.90;;;;;;5065069;28;38657;-80
2022/04/07 06:08:01;;;;;;;27.33;3.30;;;6.30;99.90;;;;;;5067858;28;37360;-80
2022/04/07 06:10:29;;;;;;;23.40;4.00;;;6.30;99.90;;;;;;5051534;28;47568;-80
2022/04/07 06:12:55;;;;;;;20.07;2.97;;;6.40;99.90;;;;;;5067984;28;38748;-80
2022/04/07 06:15:21;;;;;;;20.23;3.43;;;6.50;99.90;;;;;;5070396;28;38398;-80
2022/04/07 06:17:48;;;;;;;23.87;3.37;;;6.50;99.90;;;;;;5064995;28;37844;-80
2022/04/07 06:20:15;;;;;;;17.87;3.40;;;6.50;99.90;;;;;;5066796;28;35756;-80
2022/04/07 06:22:42;;;;;;;17.77;2.63;;;6.50;99.90;;;;;;5067636;28;38875;-79
2022/04/07 06:25:09;;;;;;;13.40;2.13;;;6.50;99.90;;;;;;5059058;28;38966;-80
2022/04/07 06:27:46;;;;;;;13.10;1.40;;;6.50;99.90;;;;;;5047503;28;38202;-81
2022/04/07 06:30:14;;;;;;;10.20;1.40;;;6.50;99.90;;;;;;5051752;28;36095;-79
2022/04/07 06:32:41;;;;;;;10.77;1.80;;;6.50;99.90;;;;;;5062448;28;38969;-80
2022/04/07 06:35:09;;;;;;;8.63;1.30;;;6.60;99.90;;;;;;5068864;28;39020;-80
2022/04/07 06:37:56;;;;;;;9.73;2.30;;;6.60;99.90;;;;;;5052522;28;38674;-80
2022/04/07 06:40:24;;;;;;;15.27;1.70;;;6.60;99.90;;;;;;5058938;28;36650;-80
2022/04/07 06:42:52;;;;;;;10.80;1.30;;;6.60;99.90;;;;;;5058915;28;40761;-80
2022/04/07 06:45:18;;;;;;;7.77;1.23;;;6.60;99.90;;;;;;5058293;28;40670;-80
2022/04/07 06:47:45;;;;;;;11.20;1.83;;;6.60;99.90;;;;;;5054724;28;37740;-80
2022/04/07 06:50:12;;;;;;;10.37;1.37;;;6.60;99.90;;;;;;5081541;28;35021;-80
2022/04/07 06:52:40;;;;;;;8.20;1.20;;;6.60;99.90;;;;;;5082933;28;40677;-80
2022/04/07 06:55:07;;;;;;;9.53;1.17;;;6.60;99.90;;;;;;5057136;27;39168;-80
2022/04/07 06:58:00;;;;;;;8.67;1.10;;;6.60;99.90;;;;;;5081219;28;38950;-80
2022/04/07 07:00:31;;;;;;;7.00;1.30;;;6.60;99.90;;;;;;5065284;28;38633;-81
2022/04/07 07:03:00;;;;;;;13.43;1.20;;;6.70;99.90;;;;;;5068995;28;39041;-80
2022/04/07 07:05:29;;;;;;;7.23;1.10;;;6.70;99.90;;;;;;5046756;28;39282;-80
2022/04/07 07:07:55;;;;;;;7.17;1.00;;;6.80;99.90;;;;;;5061508;28;36588;-80
2022/04/07 07:10:23;;;;;;;10.87;1.20;;;6.90;99.90;;;;;;5065562;28;37760;-80
2022/04/07 07:12:51;;;;;;;9.17;1.57;;;6.90;99.90;;;;;;5070740;28;39625;-81
2022/04/07 07:15:17;;;;;;;7.13;1.20;;;7.00;99.90;;;;;;5057596;28;38115;-80
2022/04/07 07:17:44;;;;;;;9.43;1.90;;;6.90;99.90;;;;;;5065521;28;36911;-81
2022/04/07 07:20:11;;;;;;;10.90;2.73;;;7.00;99.90;;;;;;5052450;28;38974;-81
2022/04/07 07:22:41;;;;;;;12.27;1.40;;;6.90;99.90;;;;;;5075238;28;39747;-80
2022/04/07 07:25:08;;;;;;;8.33;1.80;;;7.00;99.90;;;;;;5067036;28;38528;-80
2022/04/07 07:27:43;;;;;;;6.43;1.67;;;7.00;99.90;;;;;;5063901;28;39465;-79
2022/04/07 07:30:11;;;;;;;13.10;1.30;;;7.00;99.90;;;;;;5069518;28;38710;-81
2022/04/07 07:32:38;;;;;;;9.90;1.20;;;7.00;99.90;;;;;;5047911;28;40861;-80
2022/04/07 07:35:05;;;;;;;4.23;1.00;;;7.20;99.90;;;;;;5060511;28;38528;-80
2022/04/07 07:37:32;;;;;;;4.30;0.80;;;7.30;99.90;;;;;;5066011;27;37281;-80
2022/04/07 07:40:08;;;;;;;5.67;1.50;;;7.40;99.90;;;;;;5056412;28;38102;-80
2022/04/07 07:42:37;;;;;;;6.37;0.80;;;7.40;99.90;;;;;;5075533;28;47239;-80
2022/04/07 07:45:07;;;;;;;6.73;0.80;;;7.50;99.90;;;;;;5060687;28;39530;-79
2022/04/07 07:47:34;;;;;;;6.37;0.80;;;7.70;99.90;;;;;;5065858;28;38747;-80
2022/04/07 07:50:01;;;;;;;10.63;1.17;;;7.90;99.90;;;;;;5080802;28;37662;-81
2022/04/07 07:52:27;;;;;;;8.30;1.03;;;8.10;99.90;;;;;;5070916;28;39922;-81
2022/04/07 07:54:53;;;;;;;6.20;0.90;;;8.10;99.90;;;;;;5070040;28;39760;-80
2022/04/07 07:57:19;;;;;;;2.37;0.50;;;8.20;99.90;;;;;;5070841;27;39195;-81
2022/04/07 07:59:45;;;;;;;11.07;1.57;;;8.20;99.90;;;;;;5070181;28;36173;-81
2022/04/07 08:02:12;;;;;;;5.47;0.80;;;8.20;99.90;;;;;;5086497;28;39215;-80
2022/04/07 08:04:38;;;;;;;7.60;0.97;;;8.20;99.90;;;;;;5075095;28;37327;-80
2022/04/07 08:07:04;;;;;;;7.20;1.60;;;8.50;99.90;;;;;;5081882;28;38557;-79
2022/04/07 08:09:30;;;;;;;6.43;0.80;;;8.60;99.90;;;;;;5073114;28;38766;-80
2022/04/07 08:11:56;;;;;;;6.67;1.10;;;8.70;99.90;;;;;;5071498;28;39771;-80
2022/04/07 08:14:22;;;;;;;7.53;1.33;;;8.60;99.90;;;;;;5069387;28;38396;-81
2022/04/07 08:16:48;;;;;;;9.97;0.80;;;8.60;99.90;;;;;;5071730;28;37282;-80
2022/04/07 08:19:15;;;;;;;7.67;0.87;;;8.80;99.90;;;;;;5070374;28;37132;-80
2022/04/07 08:21:41;;;;;;;9.53;1.00;;;9.10;99.90;;;;;;5058796;28;39701;-80
2022/04/07 08:24:08;;;;;;;5.80;1.30;;;9.30;99.90;;;;;;5085777;28;38899;-80
2022/04/07 08:26:34;;;;;;;6.00;1.30;;;9.50;99.90;;;;;;5087927;28;38405;-78
2022/04/07 08:29:00;;;;;;;9.20;1.30;;;9.80;99.90;;;;;;5072307;27;36768;-77
2022/04/07 08:31:26;;;;;;;7.53;1.37;;;9.90;99.90;;;;;;5077319;28;37527;-77
2022/04/07 08:33:52;;;;;;;7.67;1.20;;;9.80;99.90;;;;;;5066955;28;39408;-77
2022/04/07 08:36:18;;;;;;;10.23;1.70;;;9.80;99.90;;;;;;5061667;28;38500;-78
2022/04/07 08:38:45;;;;;;;11.23;2.27;;;9.90;99.90;;;;;;5069525;28;37202;-77
2022/04/07 08:41:11;;;;;;;10.47;1.90;;;10.00;99.90;;;;;;5059765;28;39388;-77
2022/04/07 08:43:42;;;;;;;9.60;1.60;;;10.00;99.90;;;;;;5068938;28;38781;-78
2022/04/07 08:46:12;;;;;;;13.47;2.40;;;10.10;99.90;;;;;;5060375;28;38316;-77
2022/04/07 08:48:42;;;;;;;14.95;2.53;;;10.20;99.90;;;;;;5062791;28;37576;-79
2022/04/07 08:51:10;;;;;;;16.03;1.87;;;10.20;99.90;;;;;;5044853;28;41074;-78
2022/04/07 08:53:38;;;;;;;10.10;2.22;;;10.20;99.90;;;;;;5063231;28;37142;-79
2022/04/07 08:56:07;;;;;;;7.50;1.65;;;10.30;99.90;;;;;;5063344;28;38330;-78
2022/04/07 08:58:34;;;;;;;9.93;1.42;;;10.40;99.90;;;;;;5059543;28;38006;-77
2022/04/07 09:01:00;;;;;;;12.93;2.00;;;10.50;99.90;;;;;;5045617;28;39335;-79
2022/04/07 09:03:26;;;;;;;5.72;1.48;;;10.60;99.90;;;;;;5044838;28;47862;-78
2022/04/07 09:05:58;;;;;;;9.48;1.85;;;10.70;99.90;;;;;;5052295;28;38243;-79
2022/04/07 09:08:33;;;;;;;16.02;2.78;;;10.70;99.90;;;;;;5064767;28;37904;-77
2022/04/07 09:11:01;;;;;;;12.03;1.90;;;10.70;99.90;;;;;;5066791;28;39661;-77
2022/04/07 09:13:32;;;;;;;13.20;2.57;;;10.60;99.90;;;;;;5059926;28;49015;-78
2022/04/07 09:15:59;;;;;;;9.18;1.60;;;10.50;99.90;;;;;;5080699;28;39367;-78
2022/04/07 09:18:26;;;;;;;11.67;1.90;;;10.70;99.90;;;;;;5040222;28;37564;-77
2022/04/07 09:20:52;;;;;;;11.57;2.13;;;10.70;99.90;;;;;;5060159;28;40072;-77
2022/04/07 09:23:18;;;;;;;10.80;1.90;;;10.80;99.90;;;;;;5052804;28;39189;-78
2022/04/07 09:25:49;;;;;;;12.20;2.10;;;10.90;99.90;;;;;;5077424;28;38984;-77
2022/04/07 09:28:24;;;;;;;12.40;2.53;;;10.90;99.90;;;;;;5066239;28;37827;-77
2022/04/07 09:30:50;;;;;;;14.40;2.35;;;10.90;99.90;;;;;;5078887;28;40784;-77
2022/04/07 09:33:21;;;;;;;16.45;3.00;;;10.90;99.90;;;;;;5059353;28;40238;-78
2022/04/07 09:35:59;;;;;;;14.32;3.50;;;11.10;99.90;;;;;;5064201;28;38796;-78
2022/04/07 09:38:26;;;;;;;17.23;2.75;;;11.10;99.90;;;;;;5067490;28;38033;-77
2022/04/07 09:40:53;;;;;;;16.50;3.05;;;11.20;99.90;;;;;;5049524;28;39310;-78
2022/04/07 09:43:21;;;;;;;12.85;2.42;;;11.10;99.90;;;;;;5049320;28;38445;-78
2022/04/07 09:45:47;;;;;;;19.67;3.55;;;11.20;99.90;;;;;;5065666;28;37598;-78
2022/04/07 09:48:17;;;;;;;17.20;2.88;;;11.00;99.90;;;;;;5066866;28;36654;-77
2022/04/07 09:51:02;;;;;;;18.58;3.55;;;10.90;99.90;;;;;;5072290;28;40543;-76
2022/04/07 09:53:38;;;;;;;19.85;2.78;;;10.90;99.90;;;;;;5065388;28;48801;-77
2022/04/07 09:56:06;;;;;;;16.08;2.53;;;10.90;99.90;;;;;;5061051;28;38109;-76
2022/04/07 09:58:34;;;;;;;16.15;2.95;;;10.90;99.90;;;;;;5065938;28;38953;-77
2022/04/07 10:01:04;;;;;;;16.98;3.25;;;11.00;99.90;;;;;;5078268;28;39942;-77
2022/04/07 10:03:31;;;;;;;15.45;2.70;;;10.90;99.90;;;;;;5069388;28;49045;-77
2022/04/07 10:06:00;;;;;;;22.02;3.35;;;11.10;99.90;;;;;;5058074;28;38167;-77
2022/04/07 10:08:27;;;;;;;17.40;2.80;;;11.10;99.90;;;;;;5065413;28;37263;-77
2022/04/07 10:10:54;;;;;;;16.15;2.88;;;11.10;99.90;;;;;;5074069;28;38372;-77
2022/04/07 10:13:21;;;;;;;22.08;4.68;;;11.20;99.90;;;;;;5064454;27;39804;-77
2022/04/07 10:15:48;;;;;;;16.98;3.20;;;11.20;99.90;;;;;;5061299;28;38751;-76
2022/04/07 10:18:28;;;;;;;13.02;2.65;;;11.20;99.90;;;;;;5064734;28;37203;-77
2022/04/07 10:20:57;;;;;;;19.23;3.35;;;11.20;99.90;;;;;;5062975;28;40867;-77
2022/04/07 10:23:50;;;;;;;18.15;3.17;;;11.30;99.90;;;;;;5058899;27;39923;-77
2022/04/07 10:26:17;;;;;;;24.05;4.60;;;11.40;99.90;;;;;;5065048;28;38493;-77
2022/04/07 10:28:58;;;;;;;23.90;3.13;;;11.20;99.90;;;;;;5070729;28;36971;-76
2022/04/07 10:31:25;;;;;;;24.85;4.22;;;11.10;99.90;;;;;;5070138;28;39127;-76
2022/04/07 10:33:51;;;;;;;15.15;3.33;;;11.10;99.90;;;;;;5069899;28;38787;-76
2022/04/07 10:36:18;;;;;;;21.15;3.70;;;11.30;99.90;;;;;;5077453;28;37348;-76
2022/04/07 10:38:52;;;;;;;22.90;3.75;;;11.40;99.90;;;;;;5074260;28;37810;-76
2022/04/07 10:41:54;;;;;;;23.25;3.70;;;11.60;99.90;;;;;;5073196;28;40287;-77
2022/04/07 10:44:23;;;;;;;18.33;3.90;;;11.50;99.90;;;;;;4988271;28;38084;-76
2022/04/07 10:46:49;;;;;;;16.10;3.05;;;11.70;99.90;;;;;;5055677;28;37579;-76
2022/04/07 10:49:24;;;;;;;15.88;3.47;;;12.00;99.90;;;;;;5069310;28;37292;-76
2022/04/07 10:51:55;;;;;;;20.67;4.15;;;12.00;99.90;;;;;;5083732;28;39433;-75
2022/04/07 10:54:22;;;;;;;17.95;3.92;;;11.70;99.90;;;;;;5072186;27;38379;-76
2022/04/07 10:56:50;;;;;;;15.70;3.63;;;11.70;99.90;;;;;;5074227;28;37884;-75
2022/04/07 10:59:24;;;;;;;25.23;3.95;;;12.10;99.90;;;;;;5073966;28;35829;-77
2022/04/07 11:01:56;;;;;;;22.65;3.42;;;12.20;99.90;;;;;;5072998;28;40222;-76
2022/04/07 11:04:22;;;;;;;15.05;3.67;;;11.90;99.90;;;;;;5072599;28;38333;-76
2022/04/07 11:07:24;;;;;;;24.23;4.18;;;12.10;99.90;;;;;;5082341;28;37493;-76
2022/04/07 11:09:53;;;;;;;20.60;3.30;;;12.40;99.90;;;;;;5067415;28;50209;-76
2022/04/07 11:12:32;;;;;;;17.60;3.33;;;12.60;99.90;;;;;;5069597;28;38967;-79
2022/04/07 11:15:02;;;;;;;22.02;3.53;;;12.90;99.90;;;;;;5084790;28;38180;-79
2022/04/07 11:17:33;;;;;;;16.52;3.33;;;12.90;99.90;;;;;;5068333;28;38886;-79
2022/04/07 11:20:13;;;;;;;21.43;3.63;;;12.70;99.90;;;;;;5078443;28;37771;-78
2022/04/07 11:23:05;;;;;;;17.98;2.97;;;12.50;99.90;;;;;;5065125;28;48493;-79
2022/04/07 11:25:34;;;;;;;15.82;2.90;;;12.90;99.90;;;;;;5063923;28;47400;-80
2022/04/07 11:28:13;;;;;;;24.80;4.70;;;13.10;99.90;;;;;;5064718;28;37461;-79
2022/04/07 11:30:53;;;;;;;23.85;4.00;;;13.10;99.90;;;;;;5078019;28;48818;-79
2022/04/07 11:36:00;;;;;;;18.33;3.15;;;12.90;99.90;;;;;;5066917;28;39008;-79
2022/04/07 11:38:27;;;;;;;15.13;2.80;;;12.60;99.90;;;;;;5066602;28;47111;-79
2022/04/07 11:41:11;;;;;;;14.95;3.40;;;12.50;99.90;;;;;;5083103;28;37095;-78
2022/04/07 11:43:49;;;;;;;14.85;3.13;;;12.60;99.90;;;;;;5065183;28;49267;-79
2022/04/07 11:46:27;;;;;;;18.63;3.00;;;12.70;99.90;;;;;;5069014;28;38470;-80
2022/04/07 11:48:55;;;;;;;14.35;3.45;;;12.60;99.90;;;;;;5068555;28;38560;-79
2022/04/07 11:51:24;;;;;;;22.40;3.30;;;12.40;99.90;;;;;;5072080;27;36170;-79
2022/04/07 11:53:52;;;;;;;21.05;3.25;;;12.40;99.90;;;;;;5066706;28;39327;-79
2022/04/07 11:56:27;;;;;;;23.15;4.53;;;12.30;99.90;;;;;;5068617;28;38455;-79
2022/04/07 11:59:08;;;;;;;20.20;3.70;;;12.30;99.90;;;;;;5071786;28;38091;-79
2022/04/07 12:01:36;;;;;;;17.15;3.33;;;11.90;99.90;;;;;;5062490;28;47405;-79
2022/04/07 12:04:05;;;;;;;24.83;4.13;;;11.90;99.90;;;;;;5064488;28;39178;-79
2022/04/07 12:06:34;;;;;;;18.13;3.13;;;12.00;99.90;;;;;;5072680;28;37996;-79
2022/04/07 12:09:03;;;;;;;20.73;3.80;;;12.00;99.90;;;;;;5075837;28;37344;-79
2022/04/07 12:11:32;;;;;;;17.02;3.45;;;12.00;99.90;;;;;;5067109;28;49224;-79
2022/04/07 12:14:00;;;;;;;20.13;3.83;;;12.00;99.90;;;;;;5070511;28;38842;-79
2022/04/07 12:16:26;;;;;;;23.65;3.95;;;12.00;99.90;;;;;;5066438;28;39034;-79
2022/04/07 12:18:53;;;;;;;17.45;3.88;;;12.20;99.90;;;;;;5076615;28;38760;-79
2022/04/07 12:21:23;;;;;;;14.32;3.10;;;12.40;99.90;;;;;;5068784;28;37935;-79
2022/04/07 12:24:13;;;;;;;20.23;3.67;;;12.70;99.90;;;;;;5062601;28;39642;-80
2022/04/07 12:26:40;;;;;;;18.75;3.22;;;12.50;99.90;;;;;;5075795;28;47035;-79
2022/04/07 12:29:07;;;;;;;21.15;3.45;;;12.40;99.90;;;;;;5080551;28;36933;-78
2022/04/07 12:31:33;;;;;;;15.15;3.20;;;12.50;99.90;;;;;;5067610;28;38382;-79
2022/04/07 12:34:11;;;;;;;15.10;3.28;;;12.40;99.90;;;;;;5064074;28;39612;-78
2022/04/07 12:36:40;;;;;;;44.67;4.60;;;12.60;99.90;;;;;;5081350;28;48717;-80
2022/04/07 12:39:15;;;;;;;17.58;3.58;;;12.80;99.90;;;;;;5069726;28;38812;-80
2022/04/07 12:41:51;;;;;;;19.55;4.72;;;12.70;99.90;;;;;;5066587;28;36803;-79
2022/04/07 12:44:23;;;;;;;15.90;3.30;;;12.70;99.90;;;;;;5055577;28;40174;-80
2022/04/07 12:46:54;;;;;;;17.95;3.92;;;12.70;99.90;;;;;;5065947;28;38157;-79
2022/04/07 12:49:32;;;;;;;18.98;3.38;;;12.80;99.90;;;;;;5069631;27;37751;-79
2022/04/07 12:52:11;;;;;;;16.73;2.95;;;12.80;99.90;;;;;;5090355;28;37998;-79